Time;durP1;ratioP1;P1;durP2;ratioP2;P2;SDS_P1;SDS_P2;PMS_P1;PMS_P2;Temp;Humidity;BMP_temperature;BMP_pressure;BME280_temperature;BME280_humidity;BME280_pressure;Samples;Min_cycle;Max_cycle;Signal;HPM_P1;HPM_P2
2021/12/09 00:01:44;;;;;;;51.47;26.43;;;;;;;;;;6276570;22;20377;-88
2021/12/09 00:04:17;;;;;;;57.77;24.80;;;;;;;;;;6274308;22;20358;-86
2021/12/09 00:06:44;;;;;;;49.40;24.63;;;;;;;;;;6304075;22;20381;-87
2021/12/09 00:09:16;;;;;;;55.50;25.33;;;;;;;;;;6276893;22;20359;-87
2021/12/09 00:11:47;;;;;;;41.00;23.40;;;;;;;;;;6304322;22;20320;-87
2021/12/09 00:14:15;;;;;;;43.63;25.20;;;;;;;;;;6274618;22;20439;-87
2021/12/09 00:16:41;;;;;;;50.43;24.67;;;;;;;;;;6277524;22;20464;-87
2021/12/09 00:19:10;;;;;;;64.03;23.90;;;;;;;;;;6279286;22;20504;-87
2021/12/09 00:21:36;;;;;;;37.63;22.33;;;;;;;;;;6276487;22;20370;-87
2021/12/09 00:24:03;;;;;;;57.30;24.93;;;;;;;;;;6302906;22;20726;-87
2021/12/09 00:26:29;;;;;;;38.50;22.67;;;;;;;;;;6275757;22;20903;-86
2021/12/09 00:28:55;;;;;;;50.13;22.50;;;;;;;;;;6277212;22;20822;-87
2021/12/09 00:31:21;;;;;;;51.53;23.20;;;;;;;;;;6305392;22;20745;-86
2021/12/09 00:33:48;;;;;;;48.73;23.67;;;;;;;;;;6275419;22;20480;-86
2021/12/09 00:36:26;;;;;;;50.73;23.57;;;;;;;;;;6276581;22;20397;-86
2021/12/09 00:38:55;;;;;;;40.20;21.53;;;;;;;;;;6276624;22;20394;-86
2021/12/09 00:41:22;;;;;;;48.43;21.80;;;;;;;;;;6276238;22;20388;-87
2021/12/09 00:43:48;;;;;;;43.97;22.17;;;;;;;;;;6275270;22;20354;-86
2021/12/09 00:46:14;;;;;;;42.97;21.20;;;;;;;;;;6276729;22;20416;-86
2021/12/09 00:48:41;;;;;;;42.50;21.30;;;;;;;;;;6276517;22;20449;-86
2021/12/09 00:51:07;;;;;;;33.57;20.67;;;;;;;;;;6275946;22;20373;-86
2021/12/09 00:53:34;;;;;;;46.50;19.00;;;;;;;;;;6274989;22;20387;-86
2021/12/09 00:56:01;;;;;;;44.17;22.10;;;;;;;;;;6303471;22;20388;-86
2021/12/09 00:58:27;;;;;;;32.17;18.50;;;;;;;;;;6303857;22;20370;-86
2021/12/09 01:00:53;;;;;;;49.67;21.80;;;;;;;;;;6276414;22;20484;-86
2021/12/09 01:03:19;;;;;;;35.87;20.17;;;;;;;;;;6276100;22;20832;-86
2021/12/09 01:05:45;;;;;;;59.53;20.00;;;;;;;;;;6276225;22;20371;-86
2021/12/09 01:08:12;;;;;;;47.57;22.37;;;;;;;;;;6276809;22;20353;-86
2021/12/09 01:10:38;;;;;;;40.97;21.27;;;;;;;;;;6303835;22;20343;-87
2021/12/09 01:13:04;;;;;;;55.27;21.80;;;;;;;;;;6275121;22;20351;-87
2021/12/09 01:15:38;;;;;;;49.73;20.00;;;;;;;;;;6276414;22;20403;-86
2021/12/09 01:18:05;;;;;;;36.13;18.20;;;;;;;;;;6302620;22;20349;-86
2021/12/09 01:20:31;;;;;;;46.23;20.77;;;;;;;;;;6275129;22;20490;-85
2021/12/09 01:23:02;;;;;;;36.83;19.80;;;2.00;99.90;;;;;;6274931;22;20850;-85
2021/12/09 01:25:35;;;;;;;41.73;18.40;;;;;;;;;;6303572;22;20375;-85
2021/12/09 01:28:01;;;;;;;49.40;19.70;;;;;;;;;;6276558;22;20355;-86
2021/12/09 01:30:27;;;;;;;48.60;18.60;;;;;;;;;;6303650;22;20932;-85
2021/12/09 01:32:55;;;;;;;45.10;18.43;;;;;;;;;;6274572;22;20402;-85
2021/12/09 01:35:22;;;;;;;38.80;20.53;;;;;;;;;;6275618;22;20396;-85
2021/12/09 01:37:54;;;;;;;35.53;17.73;;;;;;;;;;6274097;22;20722;-85
2021/12/09 01:40:20;;;;;;;47.17;19.80;;;;;;;;;;6275446;22;20792;-85
2021/12/09 01:42:46;;;;;;;33.00;18.33;;;;;;;;;;6274739;22;20385;-85
2021/12/09 01:45:21;;;;;;;28.17;17.17;;;;;;;;;;6302867;22;20415;-85
2021/12/09 01:47:48;;;;;;;29.50;15.30;;;;;;;;;;6275906;22;20373;-85
2021/12/09 01:50:32;;;;;;;37.20;15.10;;;;;;;;;;6303540;22;20378;-85
2021/12/09 01:52:58;;;;;;;43.03;16.00;;;;;;;;;;6274589;22;20372;-85
2021/12/09 01:55:26;;;;;;;35.90;17.47;;;;;;;;;;6275688;22;20382;-85
2021/12/09 01:57:52;;;;;;;34.03;16.57;;;;;;;;;;6276630;22;20665;-85
2021/12/09 02:00:21;;;;;;;44.77;17.87;;;;;;;;;;6275905;22;20948;-86
2021/12/09 02:02:50;;;;;;;52.57;15.87;;;;;;;;;;6274616;22;20437;-85
2021/12/09 02:05:16;;;;;;;40.13;16.83;;;;;;;;;;6276285;22;20399;-85
2021/12/09 02:07:46;;;;;;;34.33;15.50;;;;;;;;;;6303645;22;20372;-86
2021/12/09 02:10:16;;;;;;;52.07;16.80;;;;;;;;;;6276479;22;20381;-85
2021/12/09 02:12:42;;;;;;;30.43;16.17;;;;;;;;;;6274954;22;20433;-85
2021/12/09 02:15:09;;;;;;;34.23;17.47;;;;;;;;;;6276034;22;20393;-85
2021/12/09 02:17:35;;;;;;;30.03;16.60;;;;;;;;;;6275970;22;20802;-85
2021/12/09 02:20:05;;;;;;;46.30;17.60;;;;;;;;;;6276179;22;20557;-85
2021/12/09 02:22:31;;;;;;;28.40;16.00;;;;;;;;;;6301631;22;20347;-85
2021/12/09 02:24:58;;;;;;;64.30;18.70;;;;;;;;;;6274458;22;20420;-85
2021/12/09 02:27:25;;;;;;;27.77;16.13;;;;;;;;;;6277577;22;20384;-85
2021/12/09 02:29:55;;;;;;;52.60;19.13;;;;;;;;;;6278041;22;20376;-85
2021/12/09 02:32:21;;;;;;;33.70;17.27;;;;;;;;;;6277162;22;20381;-85
2021/12/09 02:34:47;;;;;;;47.10;17.20;;;;;;;;;;6278737;22;20436;-85
2021/12/09 02:37:16;;;;;;;50.83;19.30;;;;;;;;;;6277967;22;20369;-85
2021/12/09 02:39:46;;;;;;;32.20;16.30;;;;;;;;;;6277673;22;20750;-85
2021/12/09 02:42:12;;;;;;;36.10;15.43;;;;;;;;;;6275414;22;20392;-85
2021/12/09 02:44:38;;;;;;;39.70;17.70;;;;;;;;;;6278503;22;20826;-85
2021/12/09 02:47:08;;;;;;;38.27;16.33;;;;;;;;;;6306171;22;20537;-85
2021/12/09 02:49:34;;;;;;;34.27;17.47;;;;;;;;;;6278413;22;20380;-85
2021/12/09 02:52:02;;;;;;;34.27;17.90;;;;;;;;;;6276479;22;20406;-85
2021/12/09 02:54:29;;;;;;;45.53;18.20;;;;;;;;;;6278122;22;20389;-85
2021/12/09 02:56:58;;;;;;;30.60;17.17;;;;;;;;;;6278625;22;20820;-85
2021/12/09 02:59:25;;;;;;;43.33;17.43;;;;;;;;;;6278630;22;20932;-85
2021/12/09 03:01:59;;;;;;;32.53;15.33;;;;;;;;;;6305845;22;20384;-85
2021/12/09 03:04:30;;;;;;;44.63;15.70;;;;;;;;;;6307479;22;20349;-85
2021/12/09 03:06:59;;;;;;;32.50;15.33;;;;;;;;;;6279267;22;20442;-85
2021/12/09 03:09:27;;;;;;;35.40;15.20;;;;;;;;;;6277935;22;20376;-85
2021/12/09 03:11:54;;;;;;;29.43;14.83;;;;;;;;;;6277233;22;20380;-85
2021/12/09 03:14:21;;;;;;;29.43;15.67;;;;;;;;;;6276607;22;20409;-85
2021/12/09 03:16:47;;;;;;;27.67;14.97;;;;;;;;;;6277398;22;20387;-85
2021/12/09 03:19:21;;;;;;;33.63;15.03;;;;;;;;;;6278555;22;21083;-85
2021/12/09 03:21:50;;;;;;;36.13;15.83;;;;;;;;;;6275922;22;20454;-85
2021/12/09 03:24:19;;;;;;;31.93;17.00;;;;;;;;;;6303980;22;20797;-85
2021/12/09 03:26:46;;;;;;;25.53;14.43;;;;;;;;;;6277383;22;20363;-85
2021/12/09 03:29:15;;;;;;;79.83;17.00;;;;;;;;;;6305114;22;20377;-85
2021/12/09 03:31:43;;;;;;;31.90;14.90;;;;;;;;;;6304057;22;20376;-85
2021/12/09 03:34:14;;;;;;;41.30;16.97;;;;;;;;;;6303811;22;20456;-85
2021/12/09 03:36:40;;;;;;;28.00;15.30;;;;;;;;;;6305255;22;20449;-86
2021/12/09 03:39:10;;;;;;;50.10;14.67;;;;;;;;;;6277387;22;20770;-85
2021/12/09 03:41:39;;;;;;;32.00;15.30;;;;;;;;;;6277774;22;20450;-85
2021/12/09 03:44:07;;;;;;;42.97;16.70;;;;;;;;;;6276569;22;20372;-85
2021/12/09 03:46:33;;;;;;;31.03;17.10;;;;;;;;;;6277546;22;20419;-85
2021/12/09 03:49:03;;;;;;;31.00;15.17;;;;;;;;;;6277740;22;20392;-85
2021/12/09 03:51:35;;;;;;;40.33;15.63;;;;;;;;;;6278334;22;20383;-85
2021/12/09 03:54:01;;;;;;;32.47;15.80;;;;;;;;;;6275809;22;20384;-85
2021/12/09 03:56:30;;;;;;;44.90;16.90;;;;;;;;;;6277224;22;20429;-85
2021/12/09 03:58:56;;;;;;;41.57;16.03;;;;;;;;;;6277112;22;20470;-85
2021/12/09 04:01:25;;;;;;;32.67;15.03;;;;;;;;;;6304517;22;20429;-85
2021/12/09 04:03:51;;;;;;;24.30;14.40;;;;;;;;;;6303619;22;20364;-85
2021/12/09 04:06:17;;;;;;;31.83;15.40;;;;;;;;;;6277184;22;20363;-85
2021/12/09 04:08:43;;;;;;;39.17;16.43;;;;;;;;;;6279072;22;20356;-85
2021/12/09 04:11:10;;;;;;;38.90;14.87;;;;;;;;;;6306613;22;20781;-85
2021/12/09 04:13:38;;;;;;;53.67;15.53;;;;;;;;;;6278804;22;20377;-85
2021/12/09 04:16:07;;;;;;;28.10;14.63;;;;;;;;;;6280292;22;20404;-85
2021/12/09 04:18:33;;;;;;;29.57;16.47;;;;;;;;;;6278973;22;20378;-85
2021/12/09 04:20:59;;;;;;;38.50;15.43;;;;;;;;;;6279661;22;20385;-85
2021/12/09 04:23:25;;;;;;;33.03;14.80;;;;;;;;;;6278272;22;20379;-85
2021/12/09 04:25:52;;;;;;;45.97;16.93;;;;;;;;;;6279187;22;20526;-85
2021/12/09 04:28:18;;;;;;;40.37;15.77;;;;;;;;;;6279823;22;20558;-85
2021/12/09 04:30:44;;;;;;;55.27;18.00;;;;;;;;;;6307032;22;20369;-85
2021/12/09 04:33:10;;;;;;;36.87;16.40;;;;;;;;;;6278929;22;20501;-85
2021/12/09 04:35:36;;;;;;;34.73;15.90;;;;;;;;;;6280267;22;20407;-85
2021/12/09 04:38:03;;;;;;;42.37;18.40;;;;;;;;;;6307665;22;20441;-85
2021/12/09 04:40:29;;;;;;;49.27;17.20;;;;;;;;;;6280198;22;20598;-85
2021/12/09 04:42:55;;;;;;;42.43;16.77;;;;;;;;;;6306219;22;20362;-85
2021/12/09 04:45:24;;;;;;;35.97;18.23;;;;;;;;;;6279719;22;20892;-85
2021/12/09 04:47:50;;;;;;;45.57;16.93;;;;;;;;;;6308684;22;20340;-85
2021/12/09 04:50:19;;;;;;;39.73;15.23;;;;;;;;;;6281662;22;20432;-85
2021/12/09 04:52:45;;;;;;;48.13;19.07;;;;;;;;;;6279992;22;20355;-85
2021/12/09 04:55:14;;;;;;;44.73;17.50;;;;;;;;;;6281044;22;20414;-85
2021/12/09 04:57:41;;;;;;;33.47;15.67;;;;;;;;;;6281389;22;20460;-85
2021/12/09 05:00:11;;;;;;;30.83;16.73;;;;;;;;;;6282271;22;20756;-85
2021/12/09 05:05:16;;;;;;;48.47;18.10;;;;;;;;;;6315386;22;20432;-85
2021/12/09 05:07:42;;;;;;;49.30;18.37;;;;;;;;;;6310612;22;20375;-85
2021/12/09 05:10:08;;;;;;;32.67;18.73;;;;;;;;;;6277380;22;20384;-86
2021/12/09 05:12:34;;;;;;;44.13;20.63;;;;;;;;;;6277255;22;20479;-85
2021/12/09 05:15:00;;;;;;;49.87;21.50;;;;;;;;;;6279714;22;20901;-85
2021/12/09 05:17:27;;;;;;;49.57;20.77;;;;;;;;;;6304574;22;20571;-85
2021/12/09 05:19:53;;;;;;;45.63;20.43;;;;;;;;;;6280812;22;20430;-85
2021/12/09 05:22:26;;;;;;;62.03;20.40;;;;;;;;;;6279701;22;20878;-85
2021/12/09 05:24:58;;;;;;;43.63;20.30;;;;;;;;;;6280917;22;20400;-85
2021/12/09 05:27:26;;;;;;;59.27;23.53;;;;;;;;;;6281396;22;20491;-85
2021/12/09 05:30:04;;;;;;;47.07;22.50;;;;;;;;;;6308521;22;20438;-85
2021/12/09 05:32:31;;;;;;;65.23;24.20;;;;;;;;;;6279869;22;20367;-85
2021/12/09 05:35:02;;;;;;;55.37;23.63;;;;;;;;;;6281612;22;20843;-85
2021/12/09 05:37:28;;;;;;;51.50;22.20;;;;;;;;;;6306705;22;20316;-85
2021/12/09 05:39:57;;;;;;;48.53;23.60;;;;;;;;;;6304306;22;20432;-85
2021/12/09 05:42:24;;;;;;;42.53;23.20;;;;;;;;;;6302412;22;20818;-85
2021/12/09 05:44:51;;;;;;;45.20;22.20;;;;;;;;;;6304022;22;20812;-85
2021/12/09 05:47:20;;;;;;;37.87;20.70;;;;;;;;;;6277302;22;20376;-85
2021/12/09 05:49:55;;;;;;;62.13;21.90;;;;;;;;;;6276771;22;20682;-85
2021/12/09 05:52:21;;;;;;;50.70;20.10;;;;;;;;;;6305847;22;20793;-85
2021/12/09 05:54:47;;;;;;;46.80;20.90;;;;;;;;;;6305885;22;20374;-85
2021/12/09 05:57:14;;;;;;;39.93;20.63;;;;;;;;;;6305045;22;20427;-85
2021/12/09 05:59:45;;;;;;;58.13;23.40;;;;;;;;;;6305574;22;20450;-85
2021/12/09 06:02:16;;;;;;;60.37;20.63;;;;;;;;;;6306977;22;20844;-85
2021/12/09 06:04:42;;;;;;;39.33;21.17;;;;;;;;;;6312302;22;20362;-85
2021/12/09 06:07:09;;;;;;;53.60;23.60;;;;;;;;;;6309182;22;20339;-85
2021/12/09 06:09:35;;;;;;;46.67;21.73;;;;;;;;;;6308653;22;20365;-85
2021/12/09 06:12:04;;;;;;;64.27;22.17;;;;;;;;;;6278896;22;20351;-85
2021/12/09 06:14:31;;;;;;;45.47;22.40;;;;;;;;;;6280089;22;20376;-85
2021/12/09 06:16:57;;;;;;;49.73;21.87;;;;;;;;;;6282569;22;20376;-85
2021/12/09 06:19:25;;;;;;;53.13;22.00;;;;;;;;;;6281079;22;20897;-85
2021/12/09 06:21:51;;;;;;;54.13;21.10;;;;;;;;;;6278022;22;20426;-85
2021/12/09 06:24:25;;;;;;;42.63;21.07;;;;;;;;;;6281118;22;20395;-85
2021/12/09 06:26:51;;;;;;;54.23;24.00;;;;;;;;;;6280072;22;20427;-84
2021/12/09 06:29:17;;;;;;;58.33;23.50;;;;;;;;;;6279607;22;20381;-85
2021/12/09 06:31:43;;;;;;;62.53;22.90;;;;;;;;;;6280755;22;20376;-84
2021/12/09 06:34:11;;;;;;;47.30;25.83;;;;;;;;;;6279404;22;20358;-85
2021/12/09 06:36:43;;;;;;;55.43;25.37;;;;;;;;;;6282865;22;20773;-84
2021/12/09 06:39:12;;;;;;;64.53;27.07;;;;;;;;;;6280653;22;20416;-85
2021/12/09 06:41:38;;;;;;;67.10;24.83;;;;;;;;;;6280550;22;20359;-85
2021/12/09 06:44:04;;;;;;;64.10;26.67;;;;;;;;;;6282022;22;20376;-83
2021/12/09 06:46:30;;;;;;;68.53;28.33;;;;;;;;;;6280287;22;20403;-85
2021/12/09 06:48:59;;;;;;;57.53;25.33;;;;;;;;;;6276200;22;20416;-85
2021/12/09 06:51:28;;;;;;;59.03;23.60;;;;;;;;;;6273682;22;20368;-86
2021/12/09 06:53:54;;;;;;;65.10;25.73;;;;;;;;;;6274783;22;20355;-85
2021/12/09 06:56:34;;;;;;;65.80;25.30;;;;;;;;;;6278728;22;20561;-85
2021/12/09 06:59:01;;;;;;;52.00;25.60;;;;;;;;;;6277343;22;20470;-85
2021/12/09 07:02:14;;;;;;;54.80;28.17;;;;;;;;;;6277730;22;20396;-86
2021/12/09 07:04:40;;;;;;;50.03;24.83;;;;;;;;;;6183572;23;20381;-86
2021/12/09 07:10:21;;;;;;;65.40;26.93;;;;;;;;;;6306826;22;20351;-86
2021/12/09 07:12:51;;;;;;;52.97;25.53;;;;;;;;;;6278689;22;20355;-86
2021/12/09 07:15:45;;;;;;;51.03;24.67;;;;;;;;;;6278578;22;20371;-86
2021/12/09 07:19:01;;;;;;;63.87;26.10;;;2.10;99.90;;;;;;6306905;22;20383;-87
2021/12/09 07:21:37;;;;;;;46.13;20.23;;;;;;;;;;6280008;22;20397;-85
2021/12/09 07:24:09;;;;;;;44.43;23.07;;;;;;;;;;6278103;22;20383;-85
2021/12/09 07:26:35;;;;;;;41.20;21.70;;;;;;;;;;6280153;22;20408;-85
2021/12/09 07:46:02;;;;;;;47.80;20.60;;;;;;;;;;5108759;27;20606;-85
2021/12/09 07:49:06;;;;;;;33.20;18.47;;;;;;;;;;5107117;28;20980;-85
2021/12/09 07:57:10;;;;;;;42.03;20.67;;;;;;;;;;4673421;26;20554;-84
2021/12/09 07:59:41;;;;;;;35.77;19.70;;;;;;;;;;5068768;28;20544;-85
2021/12/09 08:02:13;;;;;;;47.90;19.33;;;;;;;;;;5073768;28;20385;-84
2021/12/09 08:23:31;;;;;;;33.53;17.50;;;;;;;;;;5094233;28;20491;-85
2021/12/09 08:25:59;;;;;;;38.37;17.40;;;;;;;;;;5100002;28;20901;-85
2021/12/09 12:42:13;;;;;;;10.07;4.67;;;;;;;;;;5186439;27;20504;-83
2021/12/09 12:57:12;;;;;;;26.60;6.43;;;;;;;;;;5077235;22;20491;-84
2021/12/09 13:09:28;;;;;;;19.93;5.20;;;;;;;;;;5026506;28;20405;-84
2021/12/09 13:12:02;;;;;;;29.30;5.57;;;;;;;;;;5012004;28;20415;-84
2021/12/09 13:14:51;;;;;;;13.53;4.33;;;;;;;;;;5014185;28;20416;-85
2021/12/09 13:24:01;;;;;;;20.47;6.77;;;;;;;;;;4989696;28;20611;-84
2021/12/09 13:35:18;;;;;;;33.13;5.00;;;;;;;;;;5032684;28;20449;-84
2021/12/09 13:55:16;;;;;;;13.57;6.33;;;;;;;;;;5014346;28;20443;-85
2021/12/09 13:58:21;;;;;;;23.20;6.33;;;;;;;;;;5042602;28;20879;-85
2021/12/09 14:04:32;;;;;;;15.43;4.73;;;;;;;;;;4957383;29;20410;-86
2021/12/09 14:07:15;;;;;;;15.07;6.13;;;;;;;;;;5055493;28;20407;-85
